Troy, NY

7:34 AM EST on January 26, 2015 (GMT -0500)
Newtonville | Change Station
CLOSE
Current Station
Personal Weather Station
Location: Latham, NY
Elevation: 365 ft
Nearby Weather Stations
Active Advisory: Winter Storm Warning

Elev 365 ft 42.72 °N, 73.76 °W | Updated 13 minutes ago

Overcast
Overcast
9.2 °F
Feels Like 9 °F
N
0.0
Wind Variable Wind from WSW

Today
High -- | Low -- °F
--% Chance of Precip.
Yesterday
High -- | Low -- °F
Precip. -- in
7:14 AM 4:59 PM
Waxing Crescent, 42% visible
Pressure 30.12 in
Visibility 10.0 miles
Clouds Mostly Cloudy 9500 ft
Overcast 13000 ft
Windchill 9 °F
Dew Point 1 °F
Humidity 69%
Rainfall 0.00 in
Snow Depth Not available.
UV 0 out of 12
Pollen .10 out of 12
Air Quality Not available.
Flu Activity Not available.
METAR KALB 261151Z 01008KT 10SM BKN095 OVC130 M12/M19 A3011 RMK AO2 SLP200 T11221189 11111 21122 55000

More Conditions Fewer Conditions

Pressure 30.12 in
Visibility 10.0 miles
Clouds Mostly Cloudy 9500 ft
Overcast 13000 ft
Windchill 9 °F
Dew Point 1 °F
Humidity 69%
Rainfall 0.00 in
Snow Depth Not available.
UV 0 out of 12
Pollen .10 out of 12
Air Quality Not available.
Flu Activity Not available.
METAR KALB 261151Z 01008KT 10SM BKN095 OVC130 M12/M19 A3011 RMK AO2 SLP200 T11221189 11111 21122 55000

More Conditions Fewer Conditions

10-Day Weather Forecast

Almanac

Astronomy

Jan. 26, 2015 Rise Set
Actual Time
Civil Twilight
Nautical Twilight
Astronomical Twilight
Moon
Length of Visible Light
Length of Day
Tomorrow will be .
, % of the Moon is Illuminated

Today's Extremes

State Highs State Lows

Community

WunderPhotos

Upload Photos

1,790,175 photos uploaded!

WunderBlogs® & News

Nearby

Air Quality

  Air Quality AQ Index Pollutant
Not available.

Snow Depth

Station Depth Elevation

Earthquake Activity

City Distance Mag. Time & Date
Minimum magnitude displayed is 2.5.

Coastal Water Temperatures

Place Temperature

Nearby Weather Stations